createdAt,value
2022-10-18T00:00:30.813Z,101813.50
2022-10-18T00:03:02.060Z,101809.91
2022-10-18T00:05:33.850Z,101808.97
2022-10-18T00:08:05.514Z,101785.13
2022-10-18T00:10:36.794Z,101817.84
2022-10-18T00:13:08.275Z,101797.44
2022-10-18T00:15:39.654Z,101811.59
2022-10-18T00:18:10.894Z,101817.84
2022-10-18T00:20:42.230Z,101798.38
2022-10-18T00:23:13.614Z,101807.25
2022-10-18T00:25:44.872Z,101822.44
2022-10-18T00:28:16.117Z,101804.84
2022-10-18T00:30:47.590Z,101820.81
2022-10-18T00:33:18.901Z,101817.25
2022-10-18T00:35:50.173Z,101812.88
2022-10-18T00:38:21.414Z,101808.44
2022-10-18T00:40:52.683Z,101812.03
2022-10-18T00:43:23.983Z,101823.63
2022-10-18T00:45:55.365Z,101829.84
2022-10-18T00:48:26.676Z,101827.13
2022-10-18T00:50:57.980Z,101830.69
2022-10-18T00:53:29.286Z,101826.34
2022-10-18T00:56:00.547Z,101837.00
2022-10-18T00:58:31.958Z,101844.09
2022-10-18T01:01:03.379Z,101834.31
2022-10-18T01:03:36.181Z,101834.31
2022-10-18T01:06:08.448Z,101831.59
2022-10-18T01:09:09.822Z,101841.44
2022-10-18T01:12:16.382Z,101838.78
2022-10-18T01:15:11.259Z,101842.34
2022-10-18T01:17:54.982Z,101843.22
2022-10-18T01:20:42.413Z,101839.53
2022-10-18T01:23:22.766Z,101842.22
2022-10-18T01:26:02.467Z,101830.75
2022-10-18T01:28:52.621Z,101831.66
2022-10-18T01:31:31.877Z,101826.34
2022-10-18T01:34:07.243Z,101811.41
2022-10-18T01:36:46.817Z,101831.75
2022-10-18T01:39:28.737Z,101822.06
2022-10-18T01:42:03.276Z,101835.34
2022-10-18T01:44:35.373Z,101838.09
2022-10-18T01:47:10.722Z,101840.69
2022-10-18T01:49:42.366Z,101836.34
2022-10-18T01:52:15.462Z,101847.88
2022-10-18T01:54:50.944Z,101846.09
2022-10-18T01:57:39.250Z,101840.75
2022-10-18T02:00:23.929Z,101841.63
2022-10-18T02:03:04.817Z,101838.09
2022-10-18T02:06:01.783Z,101837.16
2022-10-18T02:08:50.089Z,101836.22
2022-10-18T02:11:21.894Z,101832.75
2022-10-18T02:13:57.818Z,101829.22
2022-10-18T02:16:35.929Z,101829.22
2022-10-18T02:19:14.422Z,101830.13
2022-10-18T02:21:48.282Z,101827.47
2022-10-18T02:24:23.470Z,101812.47
2022-10-18T02:26:54.733Z,101819.53
2022-10-18T02:29:26.057Z,101815.13
2022-10-18T02:32:15.461Z,101797.41
2022-10-18T02:34:54.438Z,101804.50
2022-10-18T02:37:30.646Z,101804.53
2022-10-18T02:40:03.872Z,101810.63
2022-10-18T02:42:37.514Z,101809.69
2022-10-18T02:45:08.910Z,101821.25
2022-10-18T02:47:40.355Z,101815.84
2022-10-18T02:50:12.128Z,101813.19
2022-10-18T02:52:43.556Z,101817.66
2022-10-18T02:55:15.402Z,101814.06
2022-10-18T02:57:46.761Z,101824.78
2022-10-18T03:00:18.167Z,101815.06
2022-10-18T03:02:49.476Z,101825.75
2022-10-18T03:05:20.759Z,101818.59
2022-10-18T03:07:52.121Z,101819.41
2022-10-18T03:10:23.366Z,101816.75
2022-10-18T03:12:54.642Z,101820.31
2022-10-18T03:15:25.939Z,101811.44
2022-10-18T03:17:57.190Z,101809.69
2022-10-18T03:20:28.588Z,101800.91
2022-10-18T03:23:00.003Z,101803.59
2022-10-18T03:25:31.258Z,101801.00
2022-10-18T03:28:02.520Z,101793.06
2022-10-18T03:30:34.021Z,101811.63
2022-10-18T03:33:06.127Z,101808.09
2022-10-18T03:35:37.389Z,101812.53
2022-10-18T03:38:08.723Z,101790.44
2022-10-18T03:40:40.143Z,101805.38
2022-10-18T03:43:11.403Z,101800.00
2022-10-18T03:45:43.035Z,101792.97
2022-10-18T03:48:14.456Z,101805.34
2022-10-18T03:50:45.845Z,101796.41
2022-10-18T03:53:17.096Z,101797.28
2022-10-18T03:55:55.690Z,101790.19
2022-10-18T03:58:27.054Z,101793.69
2022-10-18T04:00:58.345Z,101792.78
2022-10-18T04:03:29.721Z,101803.50
2022-10-18T04:06:03.317Z,101799.97
2022-10-18T04:08:34.567Z,101797.25
2022-10-18T04:11:09.775Z,101797.19
2022-10-18T04:13:41.150Z,101794.59
2022-10-18T04:16:12.490Z,101794.56
2022-10-18T04:18:43.735Z,101798.03
2022-10-18T04:21:15.032Z,101794.56
2022-10-18T04:23:50.570Z,101789.13
2022-10-18T04:26:22.750Z,101794.50
2022-10-18T04:28:54.378Z,101790.09
2022-10-18T04:31:25.783Z,101799.09
2022-10-18T04:33:57.075Z,101792.91
2022-10-18T04:36:28.325Z,101801.84
2022-10-18T04:38:59.614Z,101808.13
2022-10-18T04:41:31.020Z,101798.44
2022-10-18T04:44:02.259Z,101807.22
2022-10-18T04:46:33.908Z,101803.66
2022-10-18T04:49:05.144Z,101804.53
2022-10-18T04:51:36.675Z,101790.34
2022-10-18T04:54:07.922Z,101797.41
2022-10-18T04:56:39.222Z,101807.25
2022-10-18T04:59:10.534Z,101797.44
2022-10-18T05:01:41.956Z,101789.38
2022-10-18T05:04:13.240Z,101800.81
2022-10-18T05:06:44.674Z,101799.00
2022-10-18T05:09:16.001Z,101798.13
2022-10-18T05:11:47.274Z,101799.91
2022-10-18T05:14:18.671Z,101794.63
2022-10-18T05:16:49.935Z,101802.66
2022-10-18T05:19:21.455Z,101798.19
2022-10-18T05:21:52.774Z,101804.44
2022-10-18T05:24:26.962Z,101804.50
2022-10-18T05:26:59.189Z,101800.97
2022-10-18T05:29:30.450Z,101792.16
2022-10-18T05:32:01.705Z,101793.03
2022-10-18T05:34:33.065Z,101800.91
2022-10-18T05:37:04.335Z,101802.63
2022-10-18T05:39:37.294Z,101800.81
2022-10-18T05:42:08.798Z,101799.09
2022-10-18T05:44:40.047Z,101795.56
2022-10-18T05:47:11.291Z,101800.94
2022-10-18T05:49:42.576Z,101806.41
2022-10-18T05:52:13.912Z,101816.13
2022-10-18T05:54:45.161Z,101809.97
2022-10-18T05:57:16.415Z,101809.91
2022-10-18T05:59:47.658Z,101816.13
2022-10-18T06:02:19.023Z,101820.63
2022-10-18T06:04:50.313Z,101820.63
2022-10-18T06:07:21.564Z,101810.06
2022-10-18T06:09:52.820Z,101814.47
2022-10-18T06:12:24.100Z,101814.47
2022-10-18T06:14:55.382Z,101814.44
2022-10-18T06:17:28.978Z,101813.50
2022-10-18T06:20:04.351Z,101798.41
2022-10-18T06:22:35.816Z,101805.47
2022-10-18T06:25:07.313Z,101799.97
2022-10-18T06:27:38.565Z,101805.47
2022-10-18T06:30:10.206Z,101796.56
2022-10-18T06:32:41.571Z,101798.41
2022-10-18T06:35:12.898Z,101821.47
2022-10-18T06:37:44.234Z,101833.09
2022-10-18T06:40:15.618Z,101833.09
2022-10-18T06:42:55.293Z,101831.31
2022-10-18T06:45:37.166Z,101816.25
2022-10-18T06:48:08.556Z,101823.31
2022-10-18T06:50:39.910Z,101819.88
2022-10-18T06:53:11.182Z,101832.31
2022-10-18T06:55:42.456Z,101836.66
2022-10-18T06:58:13.738Z,101841.13
2022-10-18T07:00:45.545Z,101839.34
2022-10-18T07:03:16.936Z,101840.31
2022-10-18T07:05:49.358Z,101841.13
2022-10-18T07:08:20.645Z,101842.00
2022-10-18T07:10:53.170Z,101837.59
2022-10-18T07:13:32.352Z,101852.56
2022-10-18T07:16:05.940Z,101850.06
2022-10-18T07:18:40.036Z,101868.78
2022-10-18T07:21:15.957Z,101867.09
2022-10-18T07:23:47.993Z,101876.91
2022-10-18T07:26:25.093Z,101882.25
2022-10-18T07:29:07.661Z,101880.47
2022-10-18T07:31:40.713Z,101884.03
2022-10-18T07:34:13.120Z,101885.66
2022-10-18T07:36:44.381Z,101892.69
2022-10-18T07:39:15.666Z,101893.50
2022-10-18T07:41:47.058Z,101897.00
2022-10-18T07:44:18.343Z,101904.06
2022-10-18T07:46:49.586Z,101898.66
2022-10-18T07:49:21.014Z,101887.09
2022-10-18T07:51:52.273Z,101902.16
2022-10-18T07:54:23.574Z,101908.28
2022-10-18T07:56:54.892Z,101909.09
2022-10-18T07:59:26.194Z,101911.66
2022-10-18T08:01:57.480Z,101917.03
2022-10-18T08:04:28.788Z,101905.50
2022-10-18T08:07:00.133Z,101904.44
2022-10-18T08:09:31.402Z,101905.25
2022-10-18T08:12:02.659Z,101914.03
2022-10-18T08:14:33.950Z,101885.53
2022-10-18T08:17:05.207Z,101908.50
2022-10-18T08:19:36.484Z,101914.81
2022-10-18T08:22:07.729Z,101915.78
2022-10-18T08:24:39.030Z,101907.84
2022-10-18T08:27:10.277Z,101900.72
2022-10-18T08:29:41.755Z,101894.63
2022-10-18T08:32:13.779Z,101905.13
2022-10-18T08:34:45.058Z,101916.59
2022-10-18T08:37:16.385Z,101904.91
2022-10-18T08:39:47.628Z,101895.00
2022-10-18T08:42:52.570Z,101895.78
2022-10-18T08:45:41.057Z,101904.88
2022-10-18T08:48:24.085Z,101891.75
2022-10-18T08:50:57.439Z,101891.84
2022-10-18T08:53:55.286Z,101862.84
2022-10-18T08:56:26.878Z,101901.78
2022-10-18T08:58:58.156Z,101908.22
2022-10-18T09:04:39.905Z,101904.06
2022-10-18T09:07:43.781Z,101900.63
2022-10-18T09:10:31.046Z,101884.69
2022-10-18T09:13:45.769Z,101896.41
2022-10-18T09:16:27.433Z,101893.72
2022-10-18T09:19:27.114Z,101891.78
2022-10-18T09:22:09.677Z,101904.28
2022-10-18T09:24:49.714Z,101896.38
2022-10-18T09:27:30.077Z,101892.78
2022-10-18T09:30:25.087Z,101895.00
2022-10-18T09:33:10.770Z,101906.31
2022-10-18T09:36:01.347Z,101903.47
2022-10-18T09:38:41.699Z,101900.53
2022-10-18T09:41:37.624Z,101902.25
2022-10-18T09:44:08.843Z,101914.06
2022-10-18T09:46:45.349Z,101902.66
2022-10-18T09:49:21.830Z,101912.34
2022-10-18T09:51:54.122Z,101898.78
2022-10-18T09:54:43.608Z,101917.16
2022-10-18T09:57:26.155Z,101912.44
2022-10-18T09:59:58.149Z,101920.94
2022-10-18T10:02:29.479Z,101924.16
2022-10-18T10:05:00.938Z,101922.94
2022-10-18T10:07:35.414Z,101921.69
2022-10-18T10:10:16.295Z,101921.53
2022-10-18T10:12:48.834Z,101916.09
2022-10-18T10:15:22.626Z,101925.75
2022-10-18T10:18:00.606Z,101907.00
2022-10-18T10:20:50.717Z,101914.72
2022-10-18T10:23:29.008Z,101911.97
2022-10-18T10:26:23.905Z,101919.03
2022-10-18T10:28:55.298Z,101920.59
2022-10-18T10:31:31.390Z,101919.38
2022-10-18T10:34:14.644Z,101914.63
2022-10-18T10:36:51.223Z,101912.75
2022-10-18T10:39:24.556Z,101918.13
2022-10-18T10:41:58.797Z,101910.00
2022-10-18T10:44:34.056Z,101909.84
2022-10-18T10:47:05.584Z,101906.09
2022-10-18T10:49:47.400Z,101900.56
2022-10-18T10:52:27.211Z,101909.38
2022-10-18T10:55:06.110Z,101912.00
2022-10-18T10:57:50.968Z,101920.06
2022-10-18T11:00:44.172Z,101909.44
2022-10-18T11:03:29.202Z,101910.25
2022-10-18T11:06:01.810Z,101909.97
2022-10-18T11:08:38.700Z,101899.16
2022-10-18T11:11:28.509Z,101907.97
2022-10-18T11:14:25.807Z,101915.97
2022-10-18T11:17:22.369Z,101917.41
2022-10-18T11:20:16.502Z,101913.31
2022-10-18T11:23:16.658Z,101865.22
2022-10-18T11:26:12.570Z,101910.34
2022-10-18T11:29:05.477Z,101921.25
2022-10-18T11:31:52.582Z,101926.44
2022-10-18T11:34:49.301Z,101907.78
2022-10-18T11:37:38.390Z,101922.63
2022-10-18T11:40:20.798Z,101914.09
2022-10-18T11:43:10.707Z,101930.41
2022-10-18T11:45:50.603Z,101930.03
2022-10-18T11:48:24.535Z,101935.03
2022-10-18T11:51:19.966Z,101928.09
2022-10-18T11:54:24.322Z,101929.16
2022-10-18T11:57:27.927Z,101933.66
2022-10-18T12:00:05.194Z,101941.34
2022-10-18T12:03:12.961Z,101938.78
2022-10-18T12:05:47.187Z,101943.25
2022-10-18T12:08:25.451Z,101920.06
2022-10-18T12:11:05.052Z,101936.41
2022-10-18T12:13:51.142Z,101934.22
2022-10-18T12:16:45.504Z,101929.44
2022-10-18T12:19:25.420Z,101922.44
2022-10-18T12:22:13.650Z,101935.00
2022-10-18T12:24:44.913Z,101931.41
2022-10-18T12:27:17.171Z,101926.59
2022-10-18T12:30:14.144Z,101925.34
2022-10-18T12:33:02.250Z,101932.94
2022-10-18T12:35:51.065Z,101937.22
2022-10-18T12:38:35.651Z,101930.72
2022-10-18T12:41:07.140Z,101938.28
2022-10-18T12:43:38.446Z,101935.81
2022-10-18T12:46:13.762Z,101940.47
2022-10-18T12:49:04.109Z,101938.78
2022-10-18T12:51:35.390Z,101948.66
2022-10-18T12:54:11.774Z,101946.69
2022-10-18T12:56:43.765Z,101933.31
2022-10-18T12:59:15.212Z,101949.28
2022-10-18T13:01:55.469Z,101945.97
2022-10-18T13:04:26.822Z,101948.69
2022-10-18T13:06:58.202Z,101949.38
2022-10-18T13:09:36.938Z,101940.22
2022-10-18T13:12:11.009Z,101940.97
2022-10-18T13:15:12.581Z,101944.47
2022-10-18T13:17:54.716Z,101938.31
2022-10-18T13:20:40.316Z,101939.25
2022-10-18T13:23:39.376Z,101952.53
2022-10-18T13:26:25.129Z,101944.81
2022-10-18T13:29:41.150Z,101945.03
2022-10-18T13:32:24.171Z,101949.81
2022-10-18T13:34:55.790Z,101944.53
2022-10-18T13:37:29.102Z,101940.00
2022-10-18T13:40:24.247Z,101934.34
2022-10-18T13:42:55.502Z,101936.00
2022-10-18T13:45:32.957Z,101934.81
2022-10-18T13:48:27.299Z,101932.63
2022-10-18T13:51:22.356Z,101936.09
2022-10-18T13:54:27.596Z,101947.91
2022-10-18T13:57:15.929Z,101944.47
2022-10-18T13:59:57.540Z,101943.63
2022-10-18T14:02:52.991Z,101946.13
2022-10-18T14:05:50.035Z,101941.88
2022-10-18T14:08:29.557Z,101949.34
2022-10-18T14:11:07.900Z,101949.25
2022-10-18T14:13:51.190Z,101952.25
2022-10-18T14:16:31.873Z,101945.38
2022-10-18T14:19:24.954Z,101953.66
2022-10-18T14:22:38.335Z,101946.75
2022-10-18T14:25:22.610Z,101952.03
2022-10-18T14:28:31.289Z,101952.78
2022-10-18T14:31:18.100Z,101950.09
2022-10-18T14:33:57.291Z,101952.81
2022-10-18T14:36:37.622Z,101959.25
2022-10-18T14:39:20.133Z,101941.44
2022-10-18T14:41:53.684Z,101951.09
2022-10-18T14:44:30.747Z,101954.53
2022-10-18T14:47:23.531Z,101950.09
2022-10-18T14:49:57.525Z,101961.00
2022-10-18T14:52:35.437Z,101955.19
2022-10-18T14:55:21.026Z,101957.22
2022-10-18T14:57:52.556Z,101955.78
2022-10-18T15:00:30.234Z,101950.72
2022-10-18T15:03:03.893Z,101958.16
2022-10-18T15:05:35.168Z,101962.09
2022-10-18T15:08:06.621Z,101960.59
2022-10-18T15:10:37.997Z,101960.91
2022-10-18T15:13:12.832Z,101955.81
2022-10-18T15:15:44.853Z,101948.91
2022-10-18T15:18:25.110Z,101956.28
2022-10-18T15:21:22.697Z,101955.53
2022-10-18T15:23:57.740Z,101951.25
2022-10-18T15:26:30.250Z,101954.06
2022-10-18T15:29:04.485Z,101956.03
2022-10-18T15:31:42.841Z,101948.13
2022-10-18T15:34:23.200Z,101950.00
2022-10-18T15:36:56.045Z,101951.81
2022-10-18T15:39:31.793Z,101946.47
2022-10-18T15:42:03.207Z,101925.31
2022-10-18T15:44:54.868Z,101938.63
2022-10-18T15:47:26.130Z,101936.06
2022-10-18T15:49:58.666Z,101935.34
2022-10-18T15:52:38.497Z,101940.88
2022-10-18T15:55:29.016Z,101925.91
2022-10-18T15:58:04.977Z,101933.16
2022-10-18T16:00:36.242Z,101939.50
2022-10-18T16:03:09.219Z,101930.75
2022-10-18T16:05:40.719Z,101931.72
2022-10-18T16:08:30.261Z,101932.66
2022-10-18T16:11:01.632Z,101934.47
2022-10-18T16:13:33.143Z,101942.44
2022-10-18T16:16:04.613Z,101945.06
2022-10-18T16:18:35.862Z,101947.72
2022-10-18T16:21:16.458Z,101937.06
2022-10-18T16:23:48.994Z,101942.28
2022-10-18T16:26:21.338Z,101944.91
2022-10-18T16:28:54.550Z,101939.56
2022-10-18T16:31:29.548Z,101944.88
2022-10-18T16:34:01.870Z,101948.47
2022-10-18T16:36:33.481Z,101943.19
2022-10-18T16:39:07.647Z,101953.03
2022-10-18T16:41:39.012Z,101963.78
2022-10-18T16:44:10.817Z,101959.34
2022-10-18T16:46:42.621Z,101966.50
2022-10-18T16:51:55.402Z,101967.44
2022-10-18T16:54:26.665Z,101971.91
2022-10-18T16:56:57.980Z,101971.94
2022-10-18T16:59:30.967Z,101977.28
2022-10-18T17:02:06.318Z,101988.81
2022-10-18T17:04:37.641Z,101986.19
2022-10-18T17:09:57.613Z,101988.91
2022-10-18T17:12:28.934Z,101992.47
2022-10-18T17:15:00.303Z,101990.72
2022-10-18T17:17:32.214Z,101993.50
2022-10-18T17:20:06.178Z,101989.94
2022-10-18T17:22:37.510Z,101998.91
2022-10-18T17:25:08.935Z,102003.41
2022-10-18T17:27:40.254Z,101990.28
2022-10-18T17:30:13.035Z,102003.47
2022-10-18T17:32:44.615Z,101991.91
2022-10-18T17:35:16.043Z,101976.88
2022-10-18T17:37:48.889Z,101989.38
2022-10-18T17:40:20.807Z,101997.44
2022-10-18T17:42:53.305Z,101973.53
2022-10-18T17:45:25.252Z,102003.75
2022-10-18T17:47:56.500Z,102005.50
2022-10-18T17:50:29.033Z,102013.53
2022-10-18T17:53:00.457Z,102016.22
2022-10-18T17:55:34.218Z,102009.09
2022-10-18T17:58:05.945Z,102024.19
2022-10-18T18:00:37.268Z,102031.31
2022-10-18T18:03:08.775Z,102028.66
2022-10-18T18:05:40.173Z,102036.66
2022-10-18T18:08:11.517Z,102043.78
2022-10-18T18:10:42.939Z,102032.25
2022-10-18T18:13:16.309Z,102034.94
2022-10-18T18:15:50.921Z,102043.81
2022-10-18T18:18:22.317Z,102042.91
2022-10-18T18:20:55.210Z,102046.47
2022-10-18T18:23:26.710Z,102041.13
2022-10-18T18:25:58.345Z,102040.25
2022-10-18T18:28:29.615Z,102042.91
2022-10-18T18:31:05.761Z,102029.56
2022-10-18T18:33:40.620Z,102017.22
2022-10-18T18:36:12.009Z,102043.81
2022-10-18T18:38:43.852Z,102027.84
2022-10-18T18:41:18.266Z,102032.22
2022-10-18T18:43:57.365Z,102018.88
2022-10-18T18:46:32.938Z,102026.84
2022-10-18T18:49:05.826Z,102025.94
2022-10-18T18:51:39.510Z,102027.75
2022-10-18T18:54:13.758Z,102026.84
2022-10-18T18:56:45.077Z,102024.19
2022-10-18T18:59:17.094Z,102029.50
2022-10-18T19:01:48.588Z,102033.09
2022-10-18T19:04:19.999Z,102047.34
2022-10-18T19:06:51.276Z,102046.47
2022-10-18T19:09:22.895Z,102057.13
2022-10-18T19:11:56.329Z,102046.44
2022-10-18T19:14:28.908Z,102046.47
2022-10-18T19:17:01.470Z,102029.66
2022-10-18T19:19:32.784Z,102043.81
2022-10-18T19:22:04.906Z,102058.06
2022-10-18T19:24:36.750Z,102032.31
2022-10-18T19:27:12.330Z,102042.94
2022-10-18T19:29:45.777Z,102048.28
2022-10-18T19:32:18.566Z,102056.28
2022-10-18T19:34:49.880Z,102053.63
2022-10-18T19:37:21.265Z,102053.63
2022-10-18T19:39:52.515Z,102047.41
2022-10-18T19:42:27.479Z,102052.81
2022-10-18T19:45:02.903Z,102032.41
2022-10-18T19:47:34.201Z,102051.91
2022-10-18T19:50:05.866Z,102048.34
2022-10-18T19:52:37.201Z,102043.91
2022-10-18T19:55:08.553Z,102036.88
2022-10-18T19:57:39.814Z,102049.28
2022-10-18T20:00:12.521Z,102045.72
2022-10-18T20:02:46.335Z,102046.63
2022-10-18T20:05:17.613Z,102035.06
2022-10-18T20:07:48.922Z,102044.88
2022-10-18T20:10:20.173Z,102045.75
2022-10-18T20:12:51.423Z,102047.56
2022-10-18T20:15:22.757Z,102027.19
2022-10-18T20:17:55.813Z,102052.03
2022-10-18T20:20:27.157Z,102062.72
2022-10-18T20:22:58.410Z,102056.50
2022-10-18T20:25:29.823Z,102054.75
2022-10-18T20:28:01.125Z,102052.09
2022-10-18T20:30:32.849Z,102025.56
2022-10-18T20:33:04.790Z,102060.97
2022-10-18T20:35:36.098Z,102057.41
2022-10-18T20:38:07.350Z,102063.66
2022-10-18T20:40:38.891Z,102063.69
2022-10-18T20:43:10.235Z,102059.22
2022-10-18T20:45:41.492Z,102074.38
2022-10-18T20:48:12.748Z,102069.03
2022-10-18T20:50:44.178Z,102071.69
2022-10-18T20:53:15.558Z,102074.38
2022-10-18T20:55:46.824Z,102068.13
2022-10-18T20:58:18.282Z,102065.50
2022-10-18T21:00:49.534Z,102075.28
2022-10-18T21:03:20.842Z,102077.97
2022-10-18T21:05:52.151Z,102072.69
2022-10-18T21:08:23.524Z,102065.63
2022-10-18T21:10:55.647Z,102072.81
2022-10-18T21:13:26.963Z,102063.97
2022-10-18T21:15:59.516Z,102066.59
2022-10-18T21:18:32.824Z,102040.94
2022-10-18T21:21:18.544Z,102060.50
2022-10-18T21:23:51.270Z,102055.28
2022-10-18T21:26:25.578Z,102062.50
2022-10-18T21:28:58.715Z,102056.41
2022-10-18T21:31:32.085Z,102063.59
2022-10-18T21:34:06.226Z,102060.09
2022-10-18T21:36:37.620Z,102053.94
2022-10-18T21:39:13.517Z,102056.59
2022-10-18T21:41:45.330Z,102053.91
2022-10-18T21:44:17.288Z,102059.22
2022-10-18T21:46:48.780Z,102049.50
2022-10-18T21:49:20.236Z,102049.50
2022-10-18T21:51:51.590Z,102043.34
2022-10-18T21:54:22.820Z,102046.91
2022-10-18T21:56:54.261Z,102040.75
2022-10-18T21:59:25.513Z,102046.91
2022-10-18T22:01:57.155Z,102052.25
2022-10-18T22:04:28.398Z,102049.59
2022-10-18T22:06:59.748Z,102038.97
2022-10-18T22:09:31.089Z,102043.38
2022-10-18T22:12:02.741Z,102045.13
2022-10-18T22:14:34.438Z,102049.59
2022-10-18T22:17:05.889Z,102027.50
2022-10-18T22:19:37.231Z,102048.75
2022-10-18T22:22:08.935Z,102051.44
2022-10-18T22:24:40.231Z,102040.78
2022-10-18T22:27:11.621Z,102032.78
2022-10-18T22:29:42.880Z,102038.09
2022-10-18T22:32:14.130Z,102043.41
2022-10-18T22:34:45.804Z,102011.50
2022-10-18T22:37:17.056Z,102046.03
2022-10-18T22:39:48.306Z,102046.03
2022-10-18T22:42:19.538Z,102044.25
2022-10-18T22:44:50.842Z,102031.78
2022-10-18T22:47:22.218Z,102030.91
2022-10-18T22:49:53.520Z,102038.00
2022-10-18T22:52:24.790Z,102030.00
2022-10-18T22:54:56.052Z,102035.31
2022-10-18T22:57:29.129Z,102033.53
2022-10-18T23:00:00.376Z,102043.28
2022-10-18T23:02:31.923Z,102056.63
2022-10-18T23:05:03.694Z,102048.63
2022-10-18T23:07:35.050Z,102027.34
2022-10-18T23:10:06.526Z,102025.59
2022-10-18T23:12:37.809Z,102038.09
2022-10-18T23:15:09.564Z,102034.56
2022-10-18T23:17:40.860Z,102045.25
2022-10-18T23:20:12.514Z,102032.81
2022-10-18T23:22:43.811Z,102033.72
2022-10-18T23:25:15.413Z,102029.25
2022-10-18T23:27:46.826Z,102033.69
2022-10-18T23:30:18.210Z,102032.78
2022-10-18T23:32:49.497Z,102015.09
2022-10-18T23:35:20.775Z,102026.53
2022-10-18T23:37:52.613Z,102035.41
2022-10-18T23:40:23.941Z,102036.28
2022-10-18T23:42:55.194Z,102038.97
2022-10-18T23:45:26.465Z,102041.59
2022-10-18T23:47:57.815Z,102039.84
2022-10-18T23:50:29.065Z,102045.16
2022-10-18T23:53:00.317Z,102043.38
2022-10-18T23:55:31.650Z,102035.41
2022-10-18T23:58:02.976Z,102034.53
